createdAt,value
2018-04-17T05:21:12.152Z,99.99
2018-04-17T05:22:12.128Z,99.99
2018-04-17T05:23:12.100Z,99.99
2018-04-17T05:24:12.081Z,99.99
2018-04-17T05:25:12.050Z,99.99
2018-04-17T05:26:12.057Z,99.99
2018-04-17T05:27:12.003Z,99.99
2018-04-17T05:28:11.998Z,99.99
2018-04-17T05:29:11.960Z,99.99
2018-04-17T05:30:11.943Z,99.99
2018-04-17T05:31:11.924Z,99.99
2018-04-17T05:32:11.895Z,99.99
2018-04-17T05:33:11.933Z,99.99
2018-04-17T05:34:11.860Z,99.99
2018-04-17T05:35:11.850Z,99.99
2018-04-17T05:36:11.805Z,99.99
2018-04-17T05:37:11.787Z,99.99
2018-04-17T05:38:11.785Z,99.99
2018-04-17T05:39:11.738Z,99.99
2018-04-17T05:40:11.759Z,99.99
2018-04-17T05:41:11.707Z,99.99
2018-04-17T05:42:11.712Z,99.99
2018-04-17T05:43:11.660Z,99.99
2018-04-17T05:44:11.648Z,99.99
2018-04-17T05:45:11.625Z,99.99
2018-04-17T05:46:11.631Z,99.99
2018-04-17T05:47:11.605Z,99.99
2018-04-17T05:48:11.565Z,99.99
2018-04-17T05:49:11.546Z,99.99
2018-04-17T05:50:11.565Z,99.99
2018-04-17T05:51:11.523Z,99.99
2018-04-17T05:52:11.561Z,99.99
2018-04-17T05:53:11.454Z,99.99
2018-04-17T05:54:11.436Z,99.99
2018-04-17T05:55:11.443Z,99.99
2018-04-17T05:56:11.440Z,99.99
2018-04-17T05:57:11.376Z,99.99
2018-04-17T05:58:11.363Z,99.99
2018-04-17T05:59:11.335Z,99.99
2018-04-17T06:00:11.342Z,99.99
2018-04-17T06:01:11.339Z,99.55
2018-04-17T06:02:11.310Z,98.65
2018-04-17T06:03:11.260Z,98.74
2018-04-17T06:04:11.264Z,98.65
2018-04-17T06:05:11.292Z,98.27
2018-04-17T06:06:11.220Z,97.79
2018-04-17T06:07:11.215Z,97.99
2018-04-17T06:08:11.210Z,97.79
2018-04-17T06:09:11.152Z,97.41
2018-04-17T06:10:11.140Z,97.36
2018-04-17T06:11:11.139Z,96.22
2018-04-17T06:12:11.115Z,95.65
2018-04-17T06:13:11.081Z,95.84
2018-04-17T06:14:11.092Z,95.75
2018-04-17T06:15:11.043Z,94.98
2018-04-17T06:16:11.037Z,94.41
2018-04-17T06:17:11.015Z,94.74
2018-04-17T06:18:10.999Z,94.17
2018-04-17T06:19:10.979Z,93.12
2018-04-17T06:20:10.957Z,93.03
2018-04-17T06:21:10.940Z,92.55
2018-04-17T06:22:10.928Z,92.46
2018-04-17T06:23:10.949Z,91.83
2018-04-17T06:24:10.887Z,91.64
2018-04-17T06:25:10.887Z,91.17
2018-04-17T06:26:10.854Z,90.98
2018-04-17T06:27:10.861Z,90.69
2018-04-17T06:28:10.850Z,89.50
2018-04-17T06:29:10.806Z,89.26
2018-04-17T06:30:10.797Z,87.97
2018-04-17T06:31:10.783Z,87.21
2018-04-17T06:32:10.770Z,87.30
2018-04-17T06:33:10.755Z,87.11
2018-04-17T06:34:10.737Z,87.02
2018-04-17T06:35:10.772Z,86.63
2018-04-17T06:36:10.723Z,86.06
2018-04-17T06:37:10.726Z,85.58
2018-04-17T06:38:10.673Z,85.63
2018-04-17T06:39:10.661Z,85.63
2018-04-17T06:40:10.636Z,85.25
2018-04-17T06:41:10.641Z,85.63
2018-04-17T06:42:10.606Z,84.39
2018-04-17T06:43:10.602Z,84.20
2018-04-17T06:44:10.577Z,83.57
2018-04-17T06:45:10.568Z,83.18
2018-04-17T06:46:10.573Z,82.42
2018-04-17T06:47:10.543Z,82.71
2018-04-17T06:48:10.528Z,82.81
2018-04-17T06:49:10.505Z,82.23
2018-04-17T06:50:10.493Z,81.76
2018-04-17T06:51:10.485Z,81.03
2018-04-17T06:52:10.511Z,80.80
2018-04-17T06:53:10.453Z,80.46
2018-04-17T06:54:10.447Z,80.74
2018-04-17T06:55:10.428Z,80.74
2018-04-17T06:56:10.443Z,79.41
2018-04-17T06:57:10.413Z,79.41
2018-04-17T06:58:10.431Z,80.27
2018-04-17T06:59:10.388Z,79.98
2018-04-17T07:00:10.384Z,80.65
2018-04-17T07:01:10.364Z,79.69
2018-04-17T07:02:10.341Z,79.50
2018-04-17T07:03:10.334Z,80.55
2018-04-17T07:04:10.340Z,80.27
2018-04-17T07:05:10.327Z,79.41
2018-04-17T07:06:10.290Z,79.12
2018-04-17T07:07:10.282Z,78.45
2018-04-17T07:08:10.275Z,78.26
2018-04-17T07:09:10.252Z,78.49
2018-04-17T07:10:10.245Z,77.72
2018-04-17T07:11:10.233Z,77.63
2018-04-17T07:12:10.217Z,77.63
2018-04-17T07:13:10.211Z,77.72
2018-04-17T07:14:10.189Z,77.92
2018-04-17T07:15:10.206Z,78.20
2018-04-17T07:16:10.195Z,77.82
2018-04-17T07:17:10.175Z,78.49
2018-04-17T07:18:10.170Z,78.30
2018-04-17T07:19:10.129Z,77.76
2018-04-17T07:20:10.116Z,77.44
2018-04-17T07:21:10.104Z,78.34
2018-04-17T07:22:10.117Z,77.48
2018-04-17T07:23:10.087Z,76.52
2018-04-17T07:24:10.071Z,77.95
2018-04-17T07:25:10.129Z,77.95
2018-04-17T07:26:10.074Z,77.19
2018-04-17T07:27:10.034Z,76.42
2018-04-17T07:28:10.019Z,76.62
2018-04-17T07:29:10.022Z,75.66
2018-04-17T07:30:09.984Z,75.66
2018-04-17T07:31:09.968Z,76.04
2018-04-17T07:32:09.989Z,75.79
2018-04-17T07:33:09.968Z,74.99
2018-04-17T07:34:09.949Z,73.94
2018-04-17T07:35:09.923Z,75.60
2018-04-17T07:36:09.901Z,75.31
2018-04-17T07:37:09.885Z,74.93
2018-04-17T07:38:09.908Z,75.12
2018-04-17T07:39:09.865Z,74.07
2018-04-17T07:40:09.845Z,75.51
2018-04-17T07:41:09.839Z,75.41
2018-04-17T07:42:09.819Z,74.36
2018-04-17T07:43:09.807Z,74.45
2018-04-17T07:44:09.829Z,75.79
2018-04-17T07:45:09.783Z,74.84
2018-04-17T07:46:09.800Z,73.63
2018-04-17T07:47:09.784Z,72.67
2018-04-17T07:48:09.734Z,73.34
2018-04-17T07:49:09.721Z,73.63
2018-04-17T07:50:09.720Z,72.09
2018-04-17T07:51:09.910Z,72.19
2018-04-17T07:52:09.683Z,72.29
2018-04-17T07:53:09.693Z,72.38
2018-04-17T07:54:09.655Z,73.54
2018-04-17T07:55:09.638Z,73.54
2018-04-17T07:56:09.632Z,72.58
2018-04-17T07:57:09.627Z,72.48
2018-04-17T07:58:09.790Z,73.15
2018-04-17T07:59:09.600Z,73.91
2018-04-17T08:00:09.586Z,73.24
2018-04-17T08:01:09.907Z,72.19
2018-04-17T08:02:09.531Z,73.76
2018-04-17T08:03:09.519Z,74.43
2018-04-17T08:04:09.506Z,74.24
2018-04-17T08:05:09.489Z,72.61
2018-04-17T08:06:09.480Z,72.23
2018-04-17T08:07:09.474Z,71.84
2018-04-17T08:08:09.464Z,72.61
2018-04-17T08:09:09.452Z,71.37
2018-04-17T08:10:09.415Z,70.70
2018-04-17T08:11:09.405Z,70.60
2018-04-17T08:12:09.410Z,70.70
2018-04-17T08:13:09.427Z,72.13
2018-04-17T08:14:09.384Z,71.94
2018-04-17T08:15:09.349Z,72.71
2018-04-17T08:16:09.360Z,73.19
2018-04-17T08:17:09.326Z,72.23
2018-04-17T08:18:09.315Z,72.45
2018-04-17T08:19:09.284Z,71.98
2018-04-17T08:20:09.289Z,71.02
2018-04-17T08:21:09.249Z,70.64
2018-04-17T08:22:09.243Z,70.25
2018-04-17T08:23:09.255Z,70.35
2018-04-17T08:24:09.229Z,69.87
2018-04-17T08:25:09.191Z,70.83
2018-04-17T08:26:09.200Z,70.73
2018-04-17T08:27:09.168Z,70.25
2018-04-17T08:28:09.145Z,70.48
2018-04-17T08:29:09.163Z,69.71
2018-04-17T08:30:09.133Z,68.75
2018-04-17T08:31:09.113Z,70.00
2018-04-17T08:32:09.117Z,70.29
2018-04-17T08:33:09.091Z,69.23
2018-04-17T08:34:09.075Z,68.56
2018-04-17T08:35:09.209Z,68.95
2018-04-17T08:36:09.071Z,68.18
2018-04-17T08:37:09.065Z,68.18
2018-04-17T08:38:09.076Z,68.02
2018-04-17T08:39:08.991Z,66.26
2018-04-17T08:40:09.027Z,66.19
2018-04-17T08:41:08.962Z,65.23
2018-04-17T08:42:08.957Z,66.29
2018-04-17T08:43:08.946Z,67.35
2018-04-17T08:44:09.001Z,68.02
2018-04-17T08:45:08.928Z,67.83
2018-04-17T08:46:08.944Z,67.06
2018-04-17T08:47:08.885Z,66.00
2018-04-17T08:48:08.898Z,64.95
2018-04-17T08:49:08.853Z,65.05
2018-04-17T08:50:08.894Z,63.89
2018-04-17T08:51:08.814Z,63.60
2018-04-17T08:52:08.795Z,64.56
2018-04-17T08:53:08.818Z,65.46
2018-04-17T08:54:08.808Z,64.31
2018-04-17T08:55:08.785Z,64.59
2018-04-17T08:56:08.783Z,64.22
2018-04-17T08:57:08.745Z,63.54
2018-04-17T08:58:08.708Z,62.29
2018-04-17T08:59:08.792Z,62.10
2018-04-17T09:00:08.698Z,61.72
2018-04-17T09:01:08.972Z,60.95
2018-04-17T09:02:08.656Z,60.75
2018-04-17T09:03:08.643Z,60.28
2018-04-17T09:04:08.657Z,61.33
2018-04-17T09:05:08.642Z,60.95
2018-04-17T09:06:08.606Z,61.14
2018-04-17T09:07:08.607Z,62.29
2018-04-17T09:08:08.591Z,62.87
2018-04-17T09:09:08.575Z,63.67
2018-04-17T09:10:08.548Z,63.67
2018-04-17T09:11:08.537Z,62.39
2018-04-17T09:12:16.227Z,60.85
2018-04-17T09:14:11.632Z,62.58
2018-04-17T09:15:02.907Z,60.28
2018-04-17T09:16:02.866Z,61.05
2018-04-17T09:17:03.127Z,62.68
2018-04-17T09:18:02.824Z,61.46
2018-04-17T09:20:25.865Z,59.73
2018-04-17T09:21:25.919Z,59.83
2018-04-17T09:22:25.873Z,60.40
2018-04-17T09:23:25.807Z,61.36
2018-04-17T09:24:25.777Z,61.08
2018-04-17T09:25:25.838Z,60.02
2018-04-17T09:26:25.777Z,59.16
2018-04-17T09:27:25.747Z,59.44
2018-04-17T09:28:25.744Z,58.00
2018-04-17T09:29:25.746Z,59.16
2018-04-17T09:30:25.696Z,58.77
2018-04-17T09:31:25.704Z,58.67
2018-04-17T09:32:25.751Z,58.77
2018-04-17T09:33:25.665Z,59.89
2018-04-17T09:34:25.732Z,59.92
2018-04-17T09:35:25.661Z,61.46
2018-04-17T09:36:25.635Z,61.08
2018-04-17T09:37:25.607Z,60.11
2018-04-17T09:38:25.650Z,58.51
2018-04-17T09:39:25.616Z,58.42
2018-04-17T09:40:25.596Z,58.32
2018-04-17T09:41:25.593Z,58.22
2018-04-17T09:42:25.554Z,58.70
2018-04-17T09:43:25.545Z,58.35
2018-04-17T09:44:25.535Z,57.68
2018-04-17T09:45:25.532Z,57.77
2018-04-17T09:46:25.522Z,57.97
2018-04-17T09:47:25.460Z,58.35
2018-04-17T09:48:25.496Z,57.97
2018-04-17T09:49:25.495Z,55.18
2018-04-17T09:50:25.436Z,55.05
2018-04-17T09:51:25.421Z,55.53
2018-04-17T09:52:25.425Z,56.49
2018-04-17T09:53:25.407Z,55.15
2018-04-17T09:54:25.367Z,56.78
2018-04-17T09:55:25.376Z,57.87
2018-04-17T09:56:25.374Z,57.58
2018-04-17T09:57:25.328Z,57.29
2018-04-17T09:58:25.350Z,56.91
2018-04-17T09:59:25.328Z,56.71
2018-04-17T10:00:25.293Z,55.59
2018-04-17T10:01:25.332Z,54.91
2018-04-17T10:02:25.299Z,54.53
2018-04-17T10:03:25.275Z,53.76
2018-04-17T10:04:25.247Z,53.96
2018-04-17T10:05:25.223Z,53.86
2018-04-17T10:06:25.222Z,54.34
2018-04-17T10:07:25.214Z,54.43
2018-04-17T10:08:25.205Z,54.69
2018-04-17T10:09:25.235Z,54.41
2018-04-17T10:10:25.194Z,54.02
2018-04-17T10:11:25.186Z,55.08
2018-04-17T10:12:25.212Z,55.66
2018-04-17T10:13:25.144Z,54.79
2018-04-17T10:14:32.807Z,55.46
2018-04-17T10:16:28.305Z,56.33
2018-04-17T10:17:19.487Z,57.77
2018-04-17T10:18:19.526Z,56.55
2018-04-17T10:19:19.449Z,55.98
2018-04-17T10:20:19.433Z,54.72
2018-04-17T10:21:19.452Z,54.22
2018-04-17T10:22:19.409Z,54.02
2018-04-17T10:23:19.400Z,55.18
2018-04-17T10:24:19.451Z,54.99
2018-04-17T10:25:19.382Z,54.60
2018-04-17T10:26:19.359Z,55.37
2018-04-17T10:27:19.351Z,54.72
2018-04-17T10:28:19.342Z,56.65
2018-04-17T10:29:19.318Z,55.68
2018-04-17T10:30:19.374Z,54.75
2018-04-17T10:31:19.319Z,54.17
2018-04-17T10:32:19.353Z,53.69
2018-04-17T10:33:19.519Z,53.59
2018-04-17T10:34:19.329Z,53.31
2018-04-17T10:35:19.294Z,52.83
2018-04-17T10:36:19.279Z,53.02
2018-04-17T10:37:19.251Z,52.34
2018-04-17T10:38:19.308Z,52.73
2018-04-17T10:39:19.224Z,52.54
2018-04-17T10:40:19.193Z,52.61
2018-04-17T10:41:19.169Z,52.32
2018-04-17T10:42:19.178Z,53.09
2018-04-17T10:43:19.190Z,53.28
2018-04-17T10:44:19.129Z,53.28
2018-04-17T10:45:19.155Z,53.28
2018-04-17T10:46:19.115Z,53.19
2018-04-17T10:47:19.097Z,52.32
2018-04-17T10:48:19.084Z,52.32
2018-04-17T10:50:50.813Z,52.42
2018-04-17T10:51:42.086Z,52.15
2018-04-17T10:52:42.072Z,52.51
2018-04-17T10:53:42.069Z,52.61
2018-04-17T10:54:42.063Z,52.89
2018-04-17T10:55:42.127Z,53.02
2018-04-17T10:56:42.070Z,51.93
2018-04-17T10:57:42.019Z,52.12
2018-04-17T10:58:42.011Z,52.70
2018-04-17T10:59:42.038Z,53.19
2018-04-17T11:00:41.996Z,54.14
2018-04-17T11:01:41.956Z,52.73
2018-04-17T11:02:41.948Z,52.80
2018-04-17T11:03:41.929Z,52.34
2018-04-17T11:04:41.928Z,52.92
2018-04-17T11:05:41.929Z,53.31
2018-04-17T11:06:41.901Z,53.31
2018-04-17T11:07:41.880Z,53.69
2018-04-17T11:08:41.877Z,51.48
2018-04-17T11:09:41.849Z,52.54
2018-04-17T11:10:41.851Z,53.31
2018-04-17T11:11:49.544Z,52.37
2018-04-17T11:13:36.255Z,51.79
2018-04-17T11:14:36.367Z,51.98
2018-04-17T11:15:36.195Z,51.09
2018-04-17T11:16:36.179Z,51.89
2018-04-17T11:17:36.306Z,52.54
2018-04-17T11:18:36.204Z,52.66
2018-04-17T11:19:36.154Z,51.48
2018-04-17T11:22:01.257Z,51.89
2018-04-17T11:23:00.881Z,51.31
2018-04-17T11:24:00.836Z,49.68
2018-04-17T11:25:00.812Z,49.38
2018-04-17T11:27:33.347Z,50.54
2018-04-17T11:28:23.938Z,50.54
2018-04-17T11:29:24.020Z,49.55
2018-04-17T11:30:23.974Z,50.54
2018-04-17T11:31:23.835Z,49.96
2018-04-17T11:32:23.799Z,50.83
2018-04-17T11:33:23.826Z,50.45
2018-04-17T11:34:23.785Z,50.57
2018-04-17T11:35:23.784Z,49.79
2018-04-17T11:36:24.349Z,50.76
2018-04-17T11:39:00.436Z,49.99
2018-04-17T11:39:59.998Z,51.62
2018-04-17T11:40:59.834Z,53.27
2018-04-17T11:41:59.855Z,49.51
2018-04-17T11:42:59.994Z,49.99
2018-04-17T11:43:59.808Z,50.09
2018-04-17T11:44:59.803Z,48.83
2018-04-17T11:45:59.763Z,49.60
2018-04-17T11:46:59.813Z,50.09
2018-04-17T11:47:59.894Z,49.53
2018-04-17T11:48:59.937Z,48.66
2018-04-17T11:49:59.709Z,48.18
2018-04-17T11:50:59.777Z,48.76
2018-04-17T11:52:00.498Z,48.95
2018-04-17T11:52:59.803Z,50.59
2018-04-17T11:53:59.678Z,49.91
2018-04-17T11:54:59.710Z,49.82
2018-04-17T11:55:59.658Z,49.34
2018-04-17T11:56:59.634Z,48.28
2018-04-17T11:57:59.637Z,49.43
2018-04-17T11:58:59.636Z,49.24
2018-04-17T11:59:59.651Z,48.66
2018-04-17T12:00:59.616Z,48.08
2018-04-17T12:01:59.567Z,50.21
2018-04-17T12:02:59.812Z,50.69
2018-04-17T12:03:59.552Z,50.01
2018-04-17T12:04:59.537Z,49.46
2018-04-17T12:05:59.564Z,47.44
2018-04-17T12:06:59.527Z,48.18
2018-04-17T12:07:59.505Z,47.53
2018-04-17T12:08:59.488Z,46.93
2018-04-17T12:09:59.477Z,47.41
2018-04-17T12:10:59.477Z,47.22
2018-04-17T12:11:59.488Z,47.99
2018-04-17T12:12:59.464Z,48.47
2018-04-17T12:13:59.434Z,47.12
2018-04-17T12:14:59.422Z,47.03
2018-04-17T12:15:59.529Z,45.68
2018-04-17T12:18:32.535Z,46.73
2018-04-17T12:19:31.714Z,47.92
2018-04-17T12:21:24.810Z,47.44
2018-04-17T12:23:39.920Z,47.53
2018-04-17T12:24:38.904Z,47.92
2018-04-17T12:25:38.878Z,48.79
2018-04-17T12:26:38.855Z,48.71
2018-04-17T12:27:38.840Z,47.07
2018-04-17T12:28:38.838Z,46.69
2018-04-17T12:29:38.807Z,47.65
2018-04-17T12:30:38.804Z,50.35
2018-04-17T12:33:12.045Z,48.16
2018-04-17T12:34:01.900Z,46.81
2018-04-17T12:35:01.838Z,45.92
2018-04-17T12:36:01.798Z,46.88
2018-04-17T12:37:01.803Z,47.45
2018-04-17T12:38:01.801Z,48.64
2018-04-17T12:39:01.788Z,48.16
2018-04-17T12:40:01.763Z,47.36
2018-04-17T12:41:01.732Z,46.97
2018-04-17T12:42:01.735Z,46.95
2018-04-17T12:43:01.752Z,48.33
2018-04-17T12:44:01.746Z,47.44
2018-04-17T12:46:32.453Z,46.97
2018-04-17T12:47:24.750Z,48.13
2018-04-17T12:49:29.185Z,47.19
2018-04-17T12:50:19.094Z,47.99
2018-04-17T12:51:19.115Z,47.50
2018-04-17T12:52:19.150Z,46.06
2018-04-17T12:53:19.076Z,45.86
2018-04-17T12:54:19.058Z,46.34
2018-04-17T12:55:19.029Z,46.83
2018-04-17T12:57:42.073Z,46.27
2018-04-17T12:58:42.087Z,45.38
2018-04-17T12:59:42.062Z,45.96
2018-04-17T13:00:42.029Z,45.28
2018-04-17T13:01:42.052Z,46.08
2018-04-17T13:02:42.059Z,45.11
2018-04-17T13:03:42.041Z,44.34
2018-04-17T13:04:42.000Z,42.70
2018-04-17T13:05:41.985Z,42.41
2018-04-17T13:06:41.990Z,42.19
2018-04-17T13:07:42.004Z,42.89
2018-04-17T13:10:14.286Z,42.02
2018-04-17T13:11:05.042Z,42.60
2018-04-17T13:12:12.699Z,42.50
2018-04-17T13:13:58.393Z,43.10
2018-04-17T13:14:58.347Z,43.61
2018-04-17T13:17:04.911Z,40.53
2018-04-17T13:17:53.761Z,40.92
2018-04-17T13:18:53.737Z,40.07
2018-04-17T13:19:53.762Z,40.65
2018-04-17T13:20:53.733Z,38.91
2018-04-17T13:21:53.711Z,39.12
2018-04-17T13:22:53.710Z,39.04
2018-04-17T13:23:53.784Z,37.88
2018-04-17T13:24:53.736Z,36.43
2018-04-17T13:25:53.707Z,36.91
2018-04-17T13:26:53.706Z,37.59
2018-04-17T13:27:53.681Z,36.04
2018-04-17T13:28:53.669Z,36.83
2018-04-17T13:29:53.649Z,37.01
2018-04-17T13:30:53.673Z,36.02
2018-04-17T13:31:53.685Z,37.26
2018-04-17T13:32:53.664Z,38.04
2018-04-17T13:33:53.630Z,38.81
2018-04-17T13:34:53.628Z,37.82
2018-04-17T13:35:53.615Z,39.29
2018-04-17T13:36:53.645Z,38.13
2018-04-17T13:37:53.654Z,36.30
2018-04-17T13:38:53.607Z,35.81
2018-04-17T13:39:53.622Z,36.66
2018-04-17T13:40:53.619Z,37.26
2018-04-17T13:41:53.612Z,36.32
2018-04-17T13:42:53.608Z,35.72
2018-04-17T13:43:53.601Z,35.60
2018-04-17T13:44:53.576Z,37.26
2018-04-17T13:45:53.600Z,37.07
2018-04-17T13:46:53.565Z,36.99
2018-04-17T13:47:53.596Z,36.43
2018-04-17T13:48:53.623Z,36.43
2018-04-17T13:49:53.608Z,36.70
2018-04-17T13:50:53.570Z,37.30
2018-04-17T13:51:53.590Z,38.07
2018-04-17T13:52:53.629Z,37.90
2018-04-17T13:53:53.542Z,37.71
2018-04-17T13:54:53.527Z,38.21
2018-04-17T13:55:53.576Z,36.66
2018-04-17T13:56:53.524Z,35.71
2018-04-17T13:57:53.547Z,36.46
2018-04-17T13:58:53.566Z,36.76
2018-04-17T13:59:53.512Z,36.36
2018-04-17T14:00:53.509Z,35.48
2018-04-17T14:01:53.503Z,36.04
2018-04-17T14:02:53.525Z,37.21
2018-04-17T14:03:53.555Z,36.99
2018-04-17T14:04:53.527Z,38.17
2018-04-17T14:05:53.520Z,37.51
2018-04-17T14:06:53.505Z,36.80
2018-04-17T14:07:53.529Z,37.17
2018-04-17T14:08:53.486Z,38.13
2018-04-17T14:09:53.577Z,39.01
2018-04-17T14:10:53.477Z,38.71
2018-04-17T14:11:53.482Z,39.29
2018-04-17T14:12:53.477Z,38.91
2018-04-17T14:13:53.516Z,39.01
2018-04-17T14:14:53.468Z,39.29
2018-04-17T14:15:53.452Z,37.75
2018-04-17T14:16:53.533Z,37.17
2018-04-17T14:17:53.583Z,38.33
2018-04-17T14:18:53.457Z,38.81
2018-04-17T14:19:53.714Z,39.01
2018-04-17T14:20:54.722Z,39.20
2018-04-17T14:21:53.605Z,38.50
2018-04-17T14:22:53.548Z,39.37
2018-04-17T14:23:53.599Z,39.47
2018-04-17T14:24:53.454Z,39.76
2018-04-17T14:25:53.525Z,38.87
2018-04-17T14:26:53.411Z,39.36
2018-04-17T14:27:53.424Z,40.11
2018-04-17T14:28:53.392Z,40.71
2018-04-17T14:29:53.408Z,41.00
2018-04-17T14:32:17.472Z,41.60
2018-04-17T14:33:16.517Z,40.61
2018-04-17T14:34:16.531Z,40.23
2018-04-17T14:35:16.518Z,40.81
2018-04-17T14:36:16.488Z,40.81
2018-04-17T14:37:16.486Z,40.83
2018-04-17T14:38:16.509Z,41.60
2018-04-17T14:39:16.510Z,40.75
2018-04-17T14:40:16.469Z,40.84
2018-04-17T14:41:16.480Z,39.88
2018-04-17T14:42:16.467Z,39.01
2018-04-17T14:43:16.490Z,38.02
2018-04-17T14:44:16.452Z,37.71
2018-04-17T14:45:16.462Z,38.29
2018-04-17T14:46:16.449Z,39.45
2018-04-17T14:47:16.433Z,40.03
2018-04-17T14:48:16.444Z,40.13
2018-04-17T14:49:24.120Z,39.74
2018-04-17T14:51:10.817Z,39.74
2018-04-17T14:52:10.823Z,39.94
2018-04-17T14:53:10.817Z,40.59
2018-04-17T14:54:10.804Z,41.08
2018-04-17T14:55:10.809Z,40.78
2018-04-17T14:56:10.783Z,41.00
2018-04-17T14:57:10.784Z,41.19
2018-04-17T14:58:11.060Z,40.69
2018-04-17T14:59:10.749Z,40.67
2018-04-17T15:00:10.752Z,41.17
2018-04-17T15:01:10.741Z,41.93
2018-04-17T15:02:10.745Z,42.43
2018-04-17T15:03:10.715Z,42.04
2018-04-17T15:04:10.766Z,42.14
2018-04-17T15:05:10.805Z,42.72
2018-04-17T15:06:10.723Z,41.66
2018-04-17T15:07:10.710Z,40.59
2018-04-17T15:08:10.691Z,40.28
2018-04-17T15:09:10.725Z,40.38
2018-04-17T15:10:10.682Z,41.63
2018-04-17T15:11:10.697Z,41.63
2018-04-17T15:12:10.671Z,41.63
2018-04-17T15:13:10.657Z,41.63
2018-04-17T15:14:10.674Z,42.21
2018-04-17T15:15:10.672Z,41.93
2018-04-17T15:16:10.633Z,42.43
2018-04-17T15:17:12.395Z,42.91
2018-04-17T15:18:10.650Z,42.04
2018-04-17T15:19:10.604Z,40.88
2018-04-17T15:20:10.673Z,40.09
2018-04-17T15:21:10.585Z,40.47
2018-04-17T15:22:10.597Z,40.67
2018-04-17T15:23:10.605Z,42.02
2018-04-17T15:24:10.612Z,41.91
2018-04-17T15:25:10.581Z,40.94
2018-04-17T15:26:10.581Z,40.96
2018-04-17T15:27:10.538Z,41.63
2018-04-17T15:28:10.559Z,41.93
2018-04-17T15:29:10.577Z,42.70
2018-04-17T15:30:10.553Z,41.25
2018-04-17T15:31:10.537Z,42.21
2018-04-17T15:32:10.504Z,43.76
2018-04-17T15:33:10.491Z,42.41
2018-04-17T15:34:10.482Z,42.12
2018-04-17T15:35:10.480Z,42.12
2018-04-17T15:36:10.502Z,42.41
2018-04-17T15:37:10.490Z,42.31
2018-04-17T15:38:10.462Z,42.60
2018-04-17T15:39:10.457Z,42.50
2018-04-17T15:40:10.438Z,41.93
2018-04-17T15:41:10.484Z,42.72
2018-04-17T15:42:10.450Z,42.72
2018-04-17T15:43:10.422Z,41.94
2018-04-17T15:44:10.462Z,42.14
2018-04-17T15:45:10.400Z,42.24
2018-04-17T15:46:10.459Z,42.14
2018-04-17T15:47:10.387Z,42.33
2018-04-17T15:48:10.404Z,41.66
2018-04-17T15:49:10.382Z,41.93
2018-04-17T15:50:10.378Z,42.31
2018-04-17T15:51:10.391Z,41.83
2018-04-17T15:52:10.412Z,42.02
2018-04-17T15:53:10.385Z,41.93
2018-04-17T15:54:10.351Z,43.76
2018-04-17T15:55:10.329Z,43.57
2018-04-17T15:56:10.376Z,45.42
2018-04-17T15:57:10.307Z,43.90
2018-04-17T15:58:10.347Z,42.93
2018-04-17T15:59:10.321Z,42.35
2018-04-17T16:00:10.288Z,42.74
2018-04-17T16:01:10.292Z,42.14
2018-04-17T16:02:10.284Z,42.74
2018-04-17T16:03:10.284Z,42.52
2018-04-17T16:04:10.280Z,42.43
2018-04-17T16:05:10.260Z,41.36
2018-04-17T16:06:10.264Z,42.33
2018-04-17T16:07:10.284Z,42.24
2018-04-17T16:08:10.297Z,43.30
2018-04-17T16:09:10.216Z,42.60
2018-04-17T16:10:10.212Z,43.76
2018-04-17T16:11:10.199Z,45.59
2018-04-17T16:12:10.214Z,43.95
2018-04-17T16:13:10.259Z,43.74
2018-04-17T16:14:10.177Z,44.12
2018-04-17T16:15:10.205Z,44.43
2018-04-17T16:16:10.195Z,44.73
2018-04-17T16:17:10.496Z,43.64
2018-04-17T16:18:10.165Z,43.64
2018-04-17T16:19:10.451Z,43.64
2018-04-17T16:20:10.139Z,43.62
2018-04-17T16:21:10.142Z,43.43
2018-04-17T16:22:10.165Z,43.91
2018-04-17T16:23:10.125Z,43.72
2018-04-17T16:24:10.105Z,43.43
2018-04-17T16:25:10.096Z,44.01
2018-04-17T16:26:10.116Z,45.36
2018-04-17T16:27:10.104Z,44.97
2018-04-17T16:28:10.071Z,44.97
2018-04-17T16:29:10.108Z,45.26
2018-04-17T16:30:10.060Z,47.09
2018-04-17T16:31:10.117Z,46.71
2018-04-17T16:32:10.065Z,45.45
2018-04-17T16:33:10.052Z,45.34
2018-04-17T16:34:10.034Z,45.43
2018-04-17T16:35:10.009Z,45.72
2018-04-17T16:36:10.005Z,45.82
2018-04-17T16:37:10.033Z,46.40
2018-04-17T16:38:09.998Z,46.69
2018-04-17T16:39:09.979Z,45.72
2018-04-17T16:40:09.998Z,45.72
2018-04-17T16:41:10.031Z,46.11
2018-04-17T16:42:09.956Z,46.69
2018-04-17T16:43:10.060Z,47.17
2018-04-17T16:44:09.949Z,47.94
2018-04-17T16:45:10.073Z,48.81
2018-04-17T16:46:09.919Z,48.13
2018-04-17T16:47:09.905Z,48.61
2018-04-17T16:48:09.942Z,49.39
2018-04-17T16:49:09.895Z,49.87
2018-04-17T16:50:09.874Z,47.94
2018-04-17T16:51:09.896Z,49.10
2018-04-17T16:52:09.889Z,47.45
2018-04-17T16:53:09.848Z,48.23
2018-04-17T16:54:09.873Z,47.85
2018-04-17T16:55:09.836Z,49.00
2018-04-17T16:56:09.847Z,51.70
2018-04-17T16:57:09.804Z,50.74
2018-04-17T16:58:09.817Z,50.16
2018-04-17T16:59:09.818Z,51.41
2018-04-17T17:00:09.810Z,49.87
2018-04-17T17:01:09.817Z,48.11
2018-04-17T17:02:09.801Z,48.88
2018-04-17T17:03:09.757Z,50.06
2018-04-17T17:04:09.756Z,50.06
2018-04-17T17:05:09.761Z,49.48
2018-04-17T17:06:09.720Z,47.94
2018-04-17T17:07:09.741Z,48.03
2018-04-17T17:08:09.703Z,48.90
2018-04-17T17:09:09.737Z,50.16
2018-04-17T17:10:09.699Z,50.26
2018-04-17T17:11:09.697Z,50.26
2018-04-17T17:12:09.671Z,51.80
2018-04-17T17:13:09.676Z,52.95
2018-04-17T17:14:09.680Z,51.10
2018-04-17T17:15:09.679Z,51.29
2018-04-17T17:16:09.639Z,51.29
2018-04-17T17:17:09.639Z,50.62
2018-04-17T17:18:09.658Z,52.45
2018-04-17T17:19:09.616Z,53.51
2018-04-17T17:20:09.593Z,54.86
2018-04-17T17:21:09.583Z,54.96
2018-04-17T17:22:09.620Z,54.47
2018-04-17T17:23:09.579Z,54.28
2018-04-17T17:24:09.545Z,52.61
2018-04-17T17:25:09.566Z,52.55
2018-04-17T17:26:09.534Z,54.25
2018-04-17T17:27:09.535Z,54.16
2018-04-17T17:28:09.523Z,54.93
2018-04-17T17:29:09.532Z,54.35
2018-04-17T17:30:09.508Z,54.25
2018-04-17T17:31:09.478Z,55.79
2018-04-17T17:32:09.467Z,55.60
2018-04-17T17:33:09.464Z,55.22
2018-04-17T17:34:09.451Z,55.41
2018-04-17T17:35:09.437Z,53.58
2018-04-17T17:36:09.424Z,53.09
2018-04-17T17:37:09.417Z,50.98
2018-04-17T17:38:09.416Z,50.11
2018-04-17T17:39:09.402Z,49.43
2018-04-17T17:40:09.391Z,49.82
2018-04-17T17:41:09.419Z,49.73
2018-04-17T17:42:09.378Z,50.11
2018-04-17T17:43:09.351Z,51.56
2018-04-17T17:44:09.369Z,51.17
2018-04-17T17:45:09.332Z,51.26
2018-04-17T17:46:09.327Z,52.42
2018-04-17T17:47:09.375Z,53.48
2018-04-17T17:48:09.344Z,54.16
2018-04-17T17:49:09.286Z,54.64
2018-04-17T17:51:31.362Z,56.63
2018-04-17T17:52:31.331Z,56.47
2018-04-17T17:53:31.297Z,58.01
2018-04-17T17:54:31.282Z,57.40
2018-04-17T17:55:31.277Z,57.21
2018-04-17T17:56:31.275Z,56.44
2018-04-17T17:57:31.281Z,57.31
2018-04-17T17:58:31.258Z,56.03
2018-04-17T17:59:31.234Z,56.99
2018-04-17T18:00:31.211Z,57.28
2018-04-17T18:01:31.232Z,58.24
2018-04-17T18:02:31.215Z,58.02
2018-04-17T18:03:31.233Z,58.70
2018-04-17T18:04:33.185Z,61.19
2018-04-17T18:05:31.160Z,60.42
2018-04-17T18:06:31.143Z,60.39
2018-04-17T18:07:31.154Z,60.01
2018-04-17T18:08:31.267Z,59.34
2018-04-17T18:09:31.138Z,61.07
2018-04-17T18:10:31.102Z,61.55
2018-04-17T18:11:31.119Z,62.10
2018-04-17T18:12:31.102Z,62.58
2018-04-17T18:13:31.101Z,62.77
2018-04-17T18:14:31.049Z,62.48
2018-04-17T18:15:38.745Z,63.64
2018-04-17T18:17:32.624Z,64.60
2018-04-17T18:18:25.414Z,64.95
2018-04-17T18:20:18.814Z,65.91
2018-04-17T18:21:18.803Z,67.35
2018-04-17T18:23:13.184Z,65.91
2018-04-17T18:24:13.169Z,65.14
2018-04-17T18:25:13.177Z,64.76
2018-04-17T18:26:13.145Z,65.59
2018-04-17T18:27:13.153Z,66.93
2018-04-17T18:28:13.094Z,66.93
2018-04-17T18:29:13.115Z,67.41
2018-04-17T18:30:13.085Z,67.51
2018-04-17T18:31:13.052Z,67.80
2018-04-17T18:32:13.084Z,67.99
2018-04-17T18:33:13.042Z,67.80
2018-04-17T18:34:13.048Z,67.76
2018-04-17T18:35:24.732Z,69.30
2018-04-17T18:37:07.396Z,68.73
2018-04-17T18:38:07.369Z,68.91
2018-04-17T18:39:07.377Z,69.78
2018-04-17T18:40:07.930Z,69.40
2018-04-17T18:41:07.343Z,69.59
2018-04-17T18:42:07.828Z,69.20